createdAt,value
2023-05-14T00:02:19.182Z,100032.38
2023-05-14T00:04:48.188Z,100032.56
2023-05-14T00:07:19.812Z,100029.53
2023-05-14T00:09:51.654Z,100022.81
2023-05-14T00:12:20.658Z,100033.50
2023-05-14T00:14:49.864Z,100023.78
2023-05-14T00:17:18.986Z,100013.75
2023-05-14T00:19:54.905Z,100022.50
2023-05-14T00:22:23.893Z,100018.00
2023-05-14T00:24:52.792Z,100021.66
2023-05-14T00:27:23.904Z,100016.94
2023-05-14T00:29:52.942Z,100021.69
2023-05-14T00:32:22.083Z,100008.56
2023-05-14T00:34:51.047Z,100019.16
2023-05-14T00:37:20.096Z,100015.81
2023-05-14T00:39:49.245Z,100015.63
2023-05-14T00:42:18.226Z,100011.09
2023-05-14T00:44:47.229Z,100011.94
2023-05-14T00:47:19.450Z,100010.06
2023-05-14T00:49:48.556Z,100014.84
2023-05-14T00:52:17.493Z,100011.13
2023-05-14T00:54:49.616Z,100014.13
2023-05-14T00:57:21.473Z,100013.44
2023-05-14T00:59:50.425Z,100008.31
2023-05-14T01:02:19.387Z,100010.97
2023-05-14T01:04:48.472Z,100012.84
2023-05-14T01:07:52.641Z,100008.66
2023-05-14T01:10:29.201Z,100001.41
2023-05-14T01:13:16.452Z,100000.78
2023-05-14T01:15:45.524Z,99995.69
2023-05-14T01:18:15.759Z,100000.56
2023-05-14T01:20:46.243Z,100001.41
2023-05-14T01:23:15.347Z,100000.59
2023-05-14T01:25:47.020Z,99993.31
2023-05-14T01:28:22.972Z,99986.59
2023-05-14T01:30:52.165Z,99999.34
2023-05-14T01:33:21.185Z,99996.09
2023-05-14T01:35:50.578Z,99996.16
2023-05-14T01:38:20.226Z,99989.88
2023-05-14T01:40:49.721Z,99994.84
2023-05-14T01:43:18.983Z,99995.19
2023-05-14T01:45:48.263Z,100007.03
2023-05-14T01:48:20.174Z,100002.66
2023-05-14T01:50:49.181Z,100012.22
2023-05-14T01:53:21.204Z,99997.63
2023-05-14T01:55:52.363Z,100006.13
2023-05-14T01:58:21.552Z,100004.25
2023-05-14T02:00:50.538Z,100012.22
2023-05-14T02:03:19.537Z,100013.34
2023-05-14T02:05:48.485Z,100010.00
2023-05-14T02:08:23.917Z,100020.75
2023-05-14T02:10:52.979Z,100020.09
2023-05-14T02:13:22.047Z,100013.72
2023-05-14T02:15:51.683Z,100007.66
2023-05-14T02:18:20.713Z,100011.53
2023-05-14T02:20:49.741Z,100015.03
2023-05-14T02:23:19.487Z,100019.25
2023-05-14T02:25:49.560Z,100013.66
2023-05-14T02:28:18.578Z,100009.28
2023-05-14T02:30:50.641Z,100008.59
2023-05-14T02:33:19.759Z,100005.56
2023-05-14T02:35:51.281Z,100002.72
2023-05-14T02:38:22.950Z,99996.31
2023-05-14T02:41:00.933Z,99993.22
2023-05-14T02:43:29.898Z,99992.16
2023-05-14T02:45:58.928Z,99985.53
2023-05-14T02:48:28.095Z,99992.72
2023-05-14T02:50:57.183Z,99977.00
2023-05-14T02:53:26.125Z,99984.69
2023-05-14T02:55:55.209Z,99987.72
2023-05-14T02:58:27.708Z,99976.22
2023-05-14T03:00:57.668Z,99985.25
2023-05-14T03:03:27.592Z,99979.31
2023-05-14T03:05:57.526Z,99968.34
2023-05-14T03:08:29.497Z,99966.19
2023-05-14T03:10:58.560Z,99972.19
2023-05-14T03:13:27.616Z,99963.41
2023-05-14T03:15:56.762Z,99952.72
2023-05-14T03:18:25.907Z,99947.72
2023-05-14T03:20:57.674Z,99944.97
2023-05-14T03:23:26.708Z,99945.53
2023-05-14T03:25:55.778Z,99938.84
2023-05-14T03:28:24.704Z,99945.47
2023-05-14T03:30:53.988Z,99936.16
2023-05-14T03:33:23.402Z,99941.38
2023-05-14T03:36:01.147Z,99939.25
2023-05-14T03:38:30.099Z,99944.59
2023-05-14T03:40:59.631Z,99932.75
2023-05-14T03:43:31.156Z,99926.03
2023-05-14T03:46:00.450Z,99923.78
2023-05-14T03:48:29.624Z,99919.97
2023-05-14T03:50:58.657Z,99923.91
2023-05-14T03:53:27.728Z,99913.41
2023-05-14T03:55:56.949Z,99919.09
2023-05-14T03:58:25.972Z,99912.03
2023-05-14T04:00:57.749Z,99914.28
2023-05-14T04:03:30.435Z,99905.56
2023-05-14T04:06:02.372Z,99904.56
2023-05-14T04:08:33.388Z,99895.16
2023-05-14T04:11:02.402Z,99895.44
2023-05-14T04:13:33.076Z,99892.56
2023-05-14T04:16:06.842Z,99891.25
2023-05-14T04:18:38.995Z,99895.91
2023-05-14T04:21:10.953Z,99888.75
2023-05-14T04:23:40.204Z,99881.56
2023-05-14T04:26:12.112Z,99890.47
2023-05-14T04:28:41.136Z,99882.16
2023-05-14T04:31:10.193Z,99886.69
2023-05-14T04:33:42.115Z,99871.97
2023-05-14T04:36:18.802Z,99871.31
2023-05-14T04:38:48.016Z,99861.78
2023-05-14T04:41:17.194Z,99868.78
2023-05-14T04:43:46.270Z,99864.69
2023-05-14T04:46:15.539Z,99867.34
2023-05-14T04:48:44.685Z,99858.47
2023-05-14T04:51:22.385Z,99857.16
2023-05-14T04:53:56.925Z,99866.31
2023-05-14T04:56:26.185Z,99853.47
2023-05-14T04:58:55.207Z,99852.88
2023-05-14T05:01:28.110Z,99843.75
2023-05-14T05:04:03.100Z,99842.06
2023-05-14T05:06:33.349Z,99839.50
2023-05-14T05:09:03.790Z,99843.56
2023-05-14T05:11:32.776Z,99835.38
2023-05-14T05:14:01.737Z,99830.88
2023-05-14T05:16:30.861Z,99835.28
2023-05-14T05:18:59.935Z,99825.84
2023-05-14T05:21:28.976Z,99823.16
2023-05-14T05:23:58.032Z,99816.97
2023-05-14T05:26:30.206Z,99820.44
2023-05-14T05:28:59.206Z,99818.75
2023-05-14T05:31:28.257Z,99813.25
2023-05-14T05:33:57.562Z,99807.69
2023-05-14T05:36:27.066Z,99808.16
2023-05-14T05:39:01.467Z,99813.09
2023-05-14T05:41:31.665Z,99807.50
2023-05-14T05:44:00.851Z,99811.53
2023-05-14T05:46:34.215Z,99800.19
2023-05-14T05:49:05.995Z,99796.06
2023-05-14T05:51:37.585Z,99799.56
2023-05-14T05:54:07.772Z,99806.34
2023-05-14T05:56:36.812Z,99803.53
2023-05-14T05:59:10.726Z,99804.53
2023-05-14T06:01:39.819Z,99796.84
2023-05-14T06:04:09.026Z,99802.03
2023-05-14T06:06:38.112Z,99797.53
2023-05-14T06:09:11.430Z,99803.59
2023-05-14T06:11:40.409Z,99799.81
2023-05-14T06:14:09.411Z,99801.47
2023-05-14T06:16:38.535Z,99806.75
2023-05-14T06:19:08.164Z,99797.19
2023-05-14T06:21:37.282Z,99796.59
2023-05-14T06:24:06.614Z,99791.44
2023-05-14T06:26:37.823Z,99791.78
2023-05-14T06:29:06.804Z,99791.09
2023-05-14T06:31:35.833Z,99791.94
2023-05-14T06:34:05.212Z,99790.66
2023-05-14T06:36:37.321Z,99763.41
2023-05-14T06:39:06.814Z,99792.59
2023-05-14T06:41:35.896Z,99787.19
2023-05-14T06:44:05.224Z,99791.19
2023-05-14T06:46:37.271Z,99784.94
2023-05-14T06:49:09.334Z,99789.25
2023-05-14T06:51:38.364Z,99795.19
2023-05-14T06:54:07.350Z,99798.16
2023-05-14T06:56:36.578Z,99789.66
2023-05-14T06:59:05.592Z,99788.50
2023-05-14T07:01:34.696Z,99788.88
2023-05-14T07:04:07.252Z,99789.63
2023-05-14T07:06:36.365Z,99786.28
2023-05-14T07:09:08.230Z,99787.41
2023-05-14T07:11:37.370Z,99780.88
2023-05-14T07:14:06.325Z,99786.72
2023-05-14T07:16:35.429Z,99782.00
2023-05-14T07:19:06.501Z,99784.84
2023-05-14T07:21:35.757Z,99775.94
2023-05-14T07:24:06.159Z,99786.72
2023-05-14T07:26:35.204Z,99785.63
2023-05-14T07:29:04.317Z,99788.50
2023-05-14T07:31:35.974Z,99793.81
2023-05-14T07:34:05.565Z,99788.31
2023-05-14T07:36:34.656Z,99783.94
2023-05-14T07:39:06.765Z,99784.75
2023-05-14T07:41:38.370Z,99782.91
2023-05-14T07:44:07.423Z,99778.25
2023-05-14T07:46:39.182Z,99783.75
2023-05-14T07:49:08.154Z,99783.00
2023-05-14T07:51:38.076Z,99783.63
2023-05-14T07:54:07.224Z,99783.94
2023-05-14T07:56:36.278Z,99782.81
2023-05-14T07:59:05.487Z,99778.88
2023-05-14T08:01:34.599Z,99777.78
2023-05-14T08:04:03.960Z,99776.25
2023-05-14T08:06:35.598Z,99781.50
2023-05-14T08:09:06.913Z,99775.97
2023-05-14T08:11:36.079Z,99776.47
2023-05-14T08:14:05.274Z,99779.44
2023-05-14T08:16:34.389Z,99771.44
2023-05-14T08:19:03.441Z,99775.72
2023-05-14T08:21:35.872Z,99771.44
2023-05-14T08:24:16.210Z,99770.84
2023-05-14T08:26:45.526Z,99766.41
2023-05-14T08:29:16.265Z,99765.09
2023-05-14T08:31:50.940Z,99764.13
2023-05-14T08:34:22.395Z,99762.13
2023-05-14T08:36:54.170Z,99766.53
2023-05-14T08:39:26.344Z,99764.03
2023-05-14T08:42:00.527Z,99763.06
2023-05-14T08:44:34.287Z,99755.75
2023-05-14T08:47:03.275Z,99763.06
2023-05-14T08:49:44.808Z,99767.78
2023-05-14T08:52:14.124Z,99767.22
2023-05-14T08:54:43.158Z,99762.69
2023-05-14T08:57:12.436Z,99755.97
2023-05-14T08:59:41.432Z,99754.56
2023-05-14T09:02:15.252Z,99758.63
2023-05-14T09:04:44.327Z,99751.09
2023-05-14T09:07:13.504Z,99753.28
2023-05-14T09:09:42.967Z,99754.50
2023-05-14T09:12:12.074Z,99757.22
2023-05-14T09:14:41.128Z,99753.72
2023-05-14T09:17:10.124Z,99754.03
2023-05-14T09:19:40.665Z,99756.06
2023-05-14T09:22:18.125Z,99747.00
2023-05-14T09:24:47.733Z,99749.34
2023-05-14T09:27:25.010Z,99742.66
2023-05-14T09:29:55.237Z,99748.03
2023-05-14T09:32:24.629Z,99752.09
2023-05-14T09:34:54.540Z,99758.50
2023-05-14T09:37:26.506Z,99766.88
2023-05-14T09:39:58.322Z,99754.84
2023-05-14T09:42:27.829Z,99759.22
2023-05-14T09:44:56.900Z,99766.25
2023-05-14T09:47:26.178Z,99759.41
2023-05-14T09:49:55.842Z,99761.06
2023-05-14T09:52:28.266Z,99766.59
2023-05-14T09:54:57.323Z,99760.88
2023-05-14T09:57:29.775Z,99770.31
2023-05-14T09:59:58.729Z,99769.13
2023-05-14T10:02:28.611Z,99761.22
2023-05-14T10:05:00.376Z,99766.13
2023-05-14T10:07:33.704Z,99751.47
2023-05-14T10:10:04.471Z,99758.22
2023-05-14T10:12:35.947Z,99764.78
2023-05-14T10:15:22.974Z,99763.78
2023-05-14T10:17:54.546Z,99762.66
2023-05-14T10:20:23.868Z,99770.03
2023-05-14T10:22:55.207Z,99757.31
2023-05-14T10:25:27.033Z,99762.22
2023-05-14T10:27:56.113Z,99757.31
2023-05-14T10:30:25.931Z,99752.28
2023-05-14T10:33:11.246Z,99759.69
2023-05-14T10:35:58.729Z,99763.72
2023-05-14T10:38:31.564Z,99765.44
2023-05-14T10:41:05.248Z,99771.00
2023-05-14T10:43:37.990Z,99777.41
2023-05-14T10:46:18.850Z,99777.59
2023-05-14T10:48:47.865Z,99778.16
2023-05-14T10:51:18.986Z,99783.84
2023-05-14T10:53:47.960Z,99777.28
2023-05-14T10:56:16.997Z,99785.34
2023-05-14T10:58:48.963Z,99780.00
2023-05-14T11:01:18.061Z,99784.53
2023-05-14T11:03:47.848Z,99790.06
2023-05-14T11:06:17.443Z,99789.41
2023-05-14T11:08:47.891Z,99790.09
2023-05-14T11:11:17.016Z,99794.13
2023-05-14T11:13:52.036Z,99791.78
2023-05-14T11:16:30.770Z,99793.94
2023-05-14T11:19:04.915Z,99790.44
2023-05-14T11:21:36.938Z,99798.47
2023-05-14T11:24:09.866Z,99801.34
2023-05-14T11:26:39.102Z,99802.34
2023-05-14T11:29:14.206Z,99807.22
2023-05-14T11:31:45.602Z,99804.72
2023-05-14T11:34:17.223Z,99809.59
2023-05-14T11:36:49.670Z,99813.28
2023-05-14T11:39:24.507Z,99809.75
2023-05-14T11:41:56.504Z,99814.28
2023-05-14T11:44:28.289Z,99806.22
2023-05-14T11:46:58.665Z,99810.44
2023-05-14T11:49:27.822Z,99816.97
2023-05-14T11:52:10.503Z,99811.91
2023-05-14T11:54:39.561Z,99810.44
2023-05-14T11:57:15.684Z,99814.28
2023-05-14T11:59:44.712Z,99813.59
2023-05-14T12:02:17.707Z,99817.28
2023-05-14T12:04:57.496Z,99819.47
2023-05-14T12:07:26.491Z,99822.66
2023-05-14T12:09:56.247Z,99822.16
2023-05-14T12:12:30.786Z,99822.16
2023-05-14T12:15:01.944Z,99816.59
2023-05-14T12:17:35.712Z,99824.97
2023-05-14T12:20:05.659Z,99825.28
2023-05-14T12:22:36.844Z,99818.53
2023-05-14T12:25:06.425Z,99828.78
2023-05-14T12:27:38.880Z,99822.56
2023-05-14T12:32:43.337Z,99830.78
2023-05-14T12:35:12.513Z,99842.53
2023-05-14T12:37:41.577Z,99844.50
2023-05-14T12:40:13.654Z,99842.66
2023-05-14T12:42:42.890Z,99842.47
2023-05-14T12:45:15.266Z,99840.59
2023-05-14T12:47:44.290Z,99848.00
2023-05-14T12:50:13.897Z,99839.44
2023-05-14T12:52:43.226Z,99837.09
2023-05-14T12:55:12.566Z,99841.44
2023-05-14T12:57:47.165Z,99849.34
2023-05-14T13:00:17.163Z,99842.28
2023-05-14T13:02:49.029Z,99844.09
2023-05-14T13:05:20.949Z,99842.94
2023-05-14T13:07:56.415Z,99834.72
2023-05-14T13:10:25.452Z,99825.31
2023-05-14T13:12:54.554Z,99828.47
2023-05-14T13:15:23.975Z,99822.25
2023-05-14T13:17:55.183Z,99821.44
2023-05-14T13:20:31.499Z,99824.44
2023-05-14T13:23:09.455Z,99830.44
2023-05-14T13:25:38.590Z,99825.94
2023-05-14T13:28:07.563Z,99834.47
2023-05-14T13:30:36.725Z,99826.06
2023-05-14T13:33:06.383Z,99824.22
2023-05-14T13:35:36.159Z,99831.38
2023-05-14T13:38:05.180Z,99840.28
2023-05-14T13:40:34.302Z,99830.69
2023-05-14T13:43:03.430Z,99832.38
2023-05-14T13:45:32.466Z,99839.75
2023-05-14T13:48:01.744Z,99846.25
2023-05-14T13:50:30.888Z,99834.69
2023-05-14T13:52:59.881Z,99848.94
2023-05-14T13:55:28.866Z,99840.38
2023-05-14T13:57:57.924Z,99842.91
2023-05-14T14:00:28.712Z,99837.56
2023-05-14T14:02:57.741Z,99837.31
2023-05-14T14:05:29.989Z,99836.25
2023-05-14T14:08:01.055Z,99829.56
2023-05-14T14:10:43.994Z,99825.22
2023-05-14T14:13:13.031Z,99824.47
2023-05-14T14:15:44.928Z,99839.09
2023-05-14T14:18:17.156Z,99830.59
2023-05-14T14:20:46.223Z,99821.84
2023-05-14T14:23:15.284Z,99830.91
2023-05-14T14:25:44.319Z,99828.53
2023-05-14T14:28:16.674Z,99834.50
2023-05-14T14:30:45.817Z,99847.06
2023-05-14T14:33:14.975Z,99849.91
2023-05-14T14:35:46.038Z,99845.16
2023-05-14T14:38:17.789Z,99855.22
2023-05-14T14:40:47.684Z,99855.53
2023-05-14T14:43:16.613Z,99855.22
2023-05-14T14:45:49.497Z,99858.22
2023-05-14T14:48:27.810Z,99866.72
2023-05-14T14:50:57.394Z,99872.38
2023-05-14T14:53:26.677Z,99878.03
2023-05-14T14:55:57.877Z,99881.19
2023-05-14T14:58:27.568Z,99877.28
2023-05-14T15:00:57.332Z,99876.13
2023-05-14T15:03:27.047Z,99877.69
2023-05-14T15:05:56.175Z,99878.66
2023-05-14T15:08:27.368Z,99887.84
2023-05-14T15:10:59.380Z,99896.44
2023-05-14T15:13:28.623Z,99898.88
2023-05-14T15:15:57.594Z,99899.09
2023-05-14T15:18:27.297Z,99897.94
2023-05-14T15:20:56.314Z,99895.34
2023-05-14T15:23:28.128Z,99898.88
2023-05-14T15:25:57.333Z,99903.53
2023-05-14T15:28:26.324Z,99909.50
2023-05-14T15:30:55.814Z,99909.66
2023-05-14T15:33:28.024Z,99909.59
2023-05-14T15:35:57.001Z,99909.50
2023-05-14T15:38:26.027Z,99903.31
2023-05-14T15:40:55.270Z,99910.06
2023-05-14T15:43:24.516Z,99903.75
2023-05-14T15:45:53.595Z,99901.06
2023-05-14T15:48:25.436Z,99897.13
2023-05-14T15:50:54.927Z,99884.41
2023-05-14T15:53:24.018Z,99873.63
2023-05-14T15:55:56.377Z,99870.19
2023-05-14T15:58:34.336Z,99871.56
2023-05-14T16:01:04.654Z,99875.16
2023-05-14T16:03:36.839Z,99876.16
2023-05-14T16:06:06.019Z,99877.25
2023-05-14T16:08:38.148Z,99875.16
2023-05-14T16:11:07.834Z,99871.47
2023-05-14T16:13:39.210Z,99871.34
2023-05-14T16:16:08.301Z,99867.03
2023-05-14T16:18:37.347Z,99872.97
2023-05-14T16:21:06.394Z,99862.63
2023-05-14T16:23:35.476Z,99862.09
2023-05-14T16:26:04.610Z,99863.19
2023-05-14T16:28:33.729Z,99872.50
2023-05-14T16:31:03.684Z,99874.88
2023-05-14T16:33:33.019Z,99868.00
2023-05-14T16:36:04.100Z,99859.59
2023-05-14T16:38:33.164Z,99858.81
2023-05-14T16:41:02.230Z,99859.00
2023-05-14T16:43:33.851Z,99857.91
2023-05-14T16:46:02.894Z,99860.13
2023-05-14T16:48:32.202Z,99855.06
2023-05-14T16:51:11.300Z,99858.75
2023-05-14T16:53:40.330Z,99847.22
2023-05-14T16:56:09.426Z,99849.81
2023-05-14T16:58:38.458Z,99846.13
2023-05-14T17:01:12.631Z,99834.50
2023-05-14T17:03:42.017Z,99828.00
2023-05-14T17:06:11.766Z,99812.25
2023-05-14T17:08:46.619Z,99812.16
2023-05-14T17:11:15.665Z,99805.84
2023-05-14T17:13:44.670Z,99808.50
2023-05-14T17:16:13.850Z,99810.50
2023-05-14T17:18:42.882Z,99800.91
2023-05-14T17:21:11.876Z,99805.44
2023-05-14T17:23:40.964Z,99805.72
2023-05-14T17:26:10.214Z,99797.69
2023-05-14T17:28:39.720Z,99804.97
2023-05-14T17:31:08.732Z,99793.94
2023-05-14T17:33:37.848Z,99793.06
2023-05-14T17:36:07.049Z,99786.09
2023-05-14T17:38:36.301Z,99797.31
2023-05-14T17:41:08.184Z,99791.16
2023-05-14T17:43:37.295Z,99784.25
2023-05-14T17:46:06.754Z,99787.22
2023-05-14T17:48:35.798Z,99780.19
2023-05-14T17:51:04.820Z,99786.69
2023-05-14T17:53:42.512Z,99781.50
2023-05-14T17:56:14.288Z,99785.31
2023-05-14T17:58:46.094Z,99786.00
2023-05-14T18:01:15.051Z,99776.97
2023-05-14T18:03:44.375Z,99779.13
2023-05-14T18:06:15.449Z,99772.47
2023-05-14T18:08:44.461Z,99780.56
2023-05-14T18:11:16.207Z,99773.78
2023-05-14T18:13:45.186Z,99775.78
2023-05-14T18:16:16.938Z,99773.09
2023-05-14T18:18:46.010Z,99782.63
2023-05-14T18:21:15.174Z,99779.28
2023-05-14T18:23:44.219Z,99784.75
2023-05-14T18:26:13.351Z,99787.59
2023-05-14T18:28:42.347Z,99777.66
2023-05-14T18:31:14.335Z,99770.63
2023-05-14T18:33:43.313Z,99769.91
2023-05-14T18:36:12.493Z,99768.09
2023-05-14T18:38:42.416Z,99763.34
2023-05-14T18:41:11.462Z,99766.41
2023-05-14T18:43:40.612Z,99775.47
2023-05-14T18:46:09.844Z,99770.13
2023-05-14T18:48:44.838Z,99774.91
2023-05-14T18:51:17.123Z,99788.72
2023-05-14T18:53:46.162Z,99788.53
2023-05-14T18:56:15.217Z,99793.59
2023-05-14T18:58:44.153Z,99791.53
2023-05-14T19:01:13.246Z,99788.31
2023-05-14T19:03:43.537Z,99794.34
2023-05-14T19:06:12.591Z,99792.38
2023-05-14T19:08:44.660Z,99796.44
2023-05-14T19:11:13.704Z,99798.47
2023-05-14T19:13:42.757Z,99802.34
2023-05-14T19:16:12.744Z,99799.69
2023-05-14T19:18:41.844Z,99797.72
2023-05-14T19:21:13.573Z,99798.56
2023-05-14T19:23:45.467Z,99793.06
2023-05-14T19:26:14.478Z,99796.75
2023-05-14T19:28:43.459Z,99793.66
2023-05-14T19:31:12.869Z,99785.94
2023-05-14T19:33:44.695Z,99780.97
2023-05-14T19:36:13.797Z,99774.63
2023-05-14T19:38:42.756Z,99758.59
2023-05-14T19:41:12.061Z,99739.81
2023-05-14T19:43:43.835Z,99736.84
2023-05-14T19:46:13.366Z,99738.84
2023-05-14T19:48:45.458Z,99738.69
2023-05-14T19:51:17.289Z,99738.22
2023-05-14T19:53:46.813Z,99763.28
2023-05-14T19:56:16.025Z,99773.25
2023-05-14T19:58:45.811Z,99778.50
2023-05-14T20:01:14.905Z,99772.34
2023-05-14T20:03:44.002Z,99773.50
2023-05-14T20:06:18.087Z,99770.44
2023-05-14T20:08:47.202Z,99776.06
2023-05-14T20:11:17.258Z,99783.91
2023-05-14T20:13:46.570Z,99782.53
2023-05-14T20:16:18.395Z,99767.66
2023-05-14T20:18:47.832Z,99776.81
2023-05-14T20:21:16.925Z,99786.38
2023-05-14T20:23:45.894Z,99791.25
2023-05-14T20:26:15.105Z,99787.72
2023-05-14T20:28:45.035Z,99785.75
2023-05-14T20:31:14.139Z,99779.75
2023-05-14T20:33:43.236Z,99779.75
2023-05-14T20:36:12.260Z,99764.75
2023-05-14T20:38:43.157Z,99774.16
2023-05-14T20:41:12.166Z,99767.84
2023-05-14T20:43:43.314Z,99773.34
2023-05-14T20:46:12.370Z,99769.97
2023-05-14T20:48:50.379Z,99779.19
2023-05-14T20:51:28.623Z,99781.69
2023-05-14T20:54:05.278Z,99786.47
2023-05-14T20:56:48.411Z,99786.56
2023-05-14T20:59:20.264Z,99786.41
2023-05-14T21:01:49.360Z,99790.09
2023-05-14T21:04:21.758Z,99785.88
2023-05-14T21:06:56.973Z,99782.22
2023-05-14T21:09:26.062Z,99770.28
2023-05-14T21:12:06.798Z,99774.22
2023-05-14T21:14:36.147Z,99786.88
2023-05-14T21:17:07.163Z,99803.63
2023-05-14T21:19:42.508Z,99804.97
2023-05-14T21:22:11.548Z,99811.69
2023-05-14T21:24:43.639Z,99819.63
2023-05-14T21:27:15.706Z,99829.44
2023-05-14T21:29:47.972Z,99820.09
2023-05-14T21:32:17.087Z,99815.00
2023-05-14T21:34:59.516Z,99809.34
2023-05-14T21:37:31.612Z,99808.50
2023-05-14T21:40:00.797Z,99805.97
2023-05-14T21:42:38.677Z,99811.41
2023-05-14T21:45:13.104Z,99815.91
2023-05-14T21:47:45.018Z,99817.00
2023-05-14T21:50:18.523Z,99813.72
2023-05-14T21:52:50.814Z,99818.50
2023-05-14T21:55:28.141Z,99817.00
2023-05-14T21:58:00.180Z,99816.47
2023-05-14T22:00:29.681Z,99816.47
2023-05-14T22:02:58.779Z,99826.97
2023-05-14T22:05:28.227Z,99836.66
2023-05-14T22:07:57.369Z,99837.09
2023-05-14T22:10:29.458Z,99836.47
2023-05-14T22:13:00.470Z,99840.28
2023-05-14T22:15:29.557Z,99832.31
2023-05-14T22:18:10.305Z,99834.63
2023-05-14T22:20:39.557Z,99837.44
2023-05-14T22:23:08.851Z,99841.47
2023-05-14T22:25:37.871Z,99844.81
2023-05-14T22:28:07.014Z,99840.78
2023-05-14T22:30:41.461Z,99833.41
2023-05-14T22:33:18.881Z,99838.16
2023-05-14T22:35:50.832Z,99850.06
2023-05-14T22:38:28.598Z,99846.50
2023-05-14T22:41:00.994Z,99861.63
2023-05-14T22:43:30.176Z,99870.69
2023-05-14T22:45:59.212Z,99872.81
2023-05-14T22:48:39.827Z,99869.81
2023-05-14T22:54:14.567Z,99884.41
2023-05-14T22:56:46.360Z,99888.41
2023-05-14T22:59:16.300Z,99895.16
2023-05-14T23:01:56.576Z,99901.53
2023-05-14T23:04:34.716Z,99903.84
2023-05-14T23:07:10.351Z,99912.22
2023-05-14T23:09:42.056Z,99918.75
2023-05-14T23:12:31.180Z,99913.84
2023-05-14T23:15:19.732Z,99926.44
2023-05-14T23:17:50.926Z,99923.59
2023-05-14T23:20:20.001Z,99930.94
2023-05-14T23:22:52.212Z,99927.03
2023-05-14T23:25:21.339Z,99936.41
2023-05-14T23:27:51.576Z,99921.91
2023-05-14T23:30:26.440Z,99926.94
2023-05-14T23:32:55.904Z,99924.06
2023-05-14T23:35:31.293Z,99922.56
2023-05-14T23:38:06.679Z,99928.25
2023-05-14T23:40:36.004Z,99927.84
2023-05-14T23:43:05.461Z,99929.72
2023-05-14T23:45:37.476Z,99929.56
2023-05-14T23:48:09.518Z,99916.41
2023-05-14T23:50:42.039Z,99912.56
2023-05-14T23:53:11.502Z,99912.38
2023-05-14T23:55:43.536Z,99919.03
2023-05-14T23:58:15.498Z,99924.47
